sensor_id;sensor_type;location;lat;lon;timestamp;P1;durP1;ratioP1;P2;durP2;ratioP2
38499;SDS011;24269;51.894;4.622;2022-10-15T00:00:22;52.40;;;36.83;;
38499;SDS011;24269;51.894;4.622;2022-10-15T00:02:47;53.55;;;36.25;;
38499;SDS011;24269;51.894;4.622;2022-10-15T00:05:13;54.88;;;36.75;;
38499;SDS011;24269;51.894;4.622;2022-10-15T00:07:39;54.15;;;36.80;;
38499;SDS011;24269;51.894;4.622;2022-10-15T00:10:05;51.97;;;35.97;;
38499;SDS011;24269;51.894;4.622;2022-10-15T00:12:31;56.08;;;37.65;;
38499;SDS011;24269;51.894;4.622;2022-10-15T00:14:56;55.15;;;37.90;;
38499;SDS011;24269;51.894;4.622;2022-10-15T00:17:22;53.30;;;37.45;;
38499;SDS011;24269;51.894;4.622;2022-10-15T00:19:48;58.38;;;38.88;;
38499;SDS011;24269;51.894;4.622;2022-10-15T00:22:13;54.15;;;37.67;;
38499;SDS011;24269;51.894;4.622;2022-10-15T00:24:39;54.05;;;37.88;;
38499;SDS011;24269;51.894;4.622;2022-10-15T00:27:04;57.25;;;38.47;;
38499;SDS011;24269;51.894;4.622;2022-10-15T00:29:30;53.08;;;36.17;;
38499;SDS011;24269;51.894;4.622;2022-10-15T00:31:55;55.25;;;37.70;;
38499;SDS011;24269;51.894;4.622;2022-10-15T00:34:21;55.42;;;39.00;;
38499;SDS011;24269;51.894;4.622;2022-10-15T00:36:48;54.80;;;38.22;;
38499;SDS011;24269;51.894;4.622;2022-10-15T00:39:14;53.38;;;37.67;;
38499;SDS011;24269;51.894;4.622;2022-10-15T00:41:41;52.92;;;37.63;;
38499;SDS011;24269;51.894;4.622;2022-10-15T00:46:46;53.42;;;37.88;;
38499;SDS011;24269;51.894;4.622;2022-10-15T00:49:33;50.85;;;36.38;;
38499;SDS011;24269;51.894;4.622;2022-10-15T00:52:03;50.03;;;36.15;;
38499;SDS011;24269;51.894;4.622;2022-10-15T00:54:33;49.28;;;36.10;;
38499;SDS011;24269;51.894;4.622;2022-10-15T00:57:07;51.55;;;35.75;;
38499;SDS011;24269;51.894;4.622;2022-10-15T00:59:34;51.30;;;35.25;;
38499;SDS011;24269;51.894;4.622;2022-10-15T01:02:04;50.38;;;36.08;;
38499;SDS011;24269;51.894;4.622;2022-10-15T01:04:32;50.90;;;36.17;;
38499;SDS011;24269;51.894;4.622;2022-10-15T01:06:58;51.95;;;37.10;;
38499;SDS011;24269;51.894;4.622;2022-10-15T01:09:24;49.50;;;35.85;;
38499;SDS011;24269;51.894;4.622;2022-10-15T01:11:51;48.90;;;35.65;;
38499;SDS011;24269;51.894;4.622;2022-10-15T01:15:02;50.47;;;35.83;;
38499;SDS011;24269;51.894;4.622;2022-10-15T01:17:19;50.60;;;34.70;;
38499;SDS011;24269;51.894;4.622;2022-10-15T01:25:28;49.00;;;35.45;;
38499;SDS011;24269;51.894;4.622;2022-10-15T01:30:57;50.28;;;35.30;;
38499;SDS011;24269;51.894;4.622;2022-10-15T01:33:34;50.28;;;36.10;;
38499;SDS011;24269;51.894;4.622;2022-10-15T01:36:31;47.83;;;36.70;;
38499;SDS011;24269;51.894;4.622;2022-10-15T01:41:38;54.30;;;36.38;;
38499;SDS011;24269;51.894;4.622;2022-10-15T01:44:15;50.17;;;35.83;;
38499;SDS011;24269;51.894;4.622;2022-10-15T01:47:00;48.92;;;36.08;;
38499;SDS011;24269;51.894;4.622;2022-10-15T01:49:33;49.60;;;36.33;;
38499;SDS011;24269;51.894;4.622;2022-10-15T01:52:05;50.75;;;36.42;;
38499;SDS011;24269;51.894;4.622;2022-10-15T01:54:36;50.33;;;36.17;;
38499;SDS011;24269;51.894;4.622;2022-10-15T01:57:04;52.45;;;35.80;;
38499;SDS011;24269;51.894;4.622;2022-10-15T01:59:31;51.03;;;36.55;;
38499;SDS011;24269;51.894;4.622;2022-10-15T02:01:58;51.85;;;37.17;;
38499;SDS011;24269;51.894;4.622;2022-10-15T02:04:25;50.80;;;36.30;;
38499;SDS011;24269;51.894;4.622;2022-10-15T02:18:23;47.47;;;34.22;;
38499;SDS011;24269;51.894;4.622;2022-10-15T02:21:16;46.00;;;35.38;;
38499;SDS011;24269;51.894;4.622;2022-10-15T02:26:23;49.20;;;34.95;;
38499;SDS011;24269;51.894;4.622;2022-10-15T02:28:53;49.20;;;36.40;;
38499;SDS011;24269;51.894;4.622;2022-10-15T02:31:20;48.13;;;36.25;;
38499;SDS011;24269;51.894;4.622;2022-10-15T02:33:48;49.58;;;35.15;;
38499;SDS011;24269;51.894;4.622;2022-10-15T02:36:17;49.08;;;36.33;;
38499;SDS011;24269;51.894;4.622;2022-10-15T02:38:43;50.92;;;35.72;;
38499;SDS011;24269;51.894;4.622;2022-10-15T02:41:10;47.05;;;35.85;;
38499;SDS011;24269;51.894;4.622;2022-10-15T02:43:37;50.30;;;37.08;;
38499;SDS011;24269;51.894;4.622;2022-10-15T02:46:04;49.45;;;37.03;;
38499;SDS011;24269;51.894;4.622;2022-10-15T02:48:32;54.75;;;37.47;;
38499;SDS011;24269;51.894;4.622;2022-10-15T02:50:58;49.95;;;35.97;;
38499;SDS011;24269;51.894;4.622;2022-10-15T02:53:24;53.08;;;37.30;;
38499;SDS011;24269;51.894;4.622;2022-10-15T02:55:49;50.25;;;36.85;;
38499;SDS011;24269;51.894;4.622;2022-10-15T02:58:15;51.88;;;38.08;;
38499;SDS011;24269;51.894;4.622;2022-10-15T03:00:40;55.58;;;39.55;;
38499;SDS011;24269;51.894;4.622;2022-10-15T03:03:06;57.25;;;39.95;;
38499;SDS011;24269;51.894;4.622;2022-10-15T03:05:32;59.42;;;40.88;;
38499;SDS011;24269;51.894;4.622;2022-10-15T03:07:59;55.67;;;41.13;;
38499;SDS011;24269;51.894;4.622;2022-10-15T03:10:24;60.20;;;43.25;;
38499;SDS011;24269;51.894;4.622;2022-10-15T03:12:50;62.38;;;43.42;;
38499;SDS011;24269;51.894;4.622;2022-10-15T03:15:15;60.58;;;42.90;;
38499;SDS011;24269;51.894;4.622;2022-10-15T03:17:41;62.65;;;43.50;;
38499;SDS011;24269;51.894;4.622;2022-10-15T03:20:07;63.22;;;43.53;;
38499;SDS011;24269;51.894;4.622;2022-10-15T03:22:32;60.20;;;43.25;;
38499;SDS011;24269;51.894;4.622;2022-10-15T03:24:58;67.95;;;43.80;;
38499;SDS011;24269;51.894;4.622;2022-10-15T03:27:24;70.20;;;45.33;;
38499;SDS011;24269;51.894;4.622;2022-10-15T03:29:49;62.65;;;44.03;;
38499;SDS011;24269;51.894;4.622;2022-10-15T03:32:15;63.50;;;45.25;;
38499;SDS011;24269;51.894;4.622;2022-10-15T03:34:41;62.92;;;43.25;;
38499;SDS011;24269;51.894;4.622;2022-10-15T03:37:06;63.60;;;44.08;;
38499;SDS011;24269;51.894;4.622;2022-10-15T03:39:32;64.38;;;44.58;;
38499;SDS011;24269;51.894;4.622;2022-10-15T03:41:57;66.15;;;45.00;;
38499;SDS011;24269;51.894;4.622;2022-10-15T03:44:23;66.40;;;44.58;;
38499;SDS011;24269;51.894;4.622;2022-10-15T03:46:49;68.07;;;47.10;;
38499;SDS011;24269;51.894;4.622;2022-10-15T03:49:15;69.70;;;46.22;;
38499;SDS011;24269;51.894;4.622;2022-10-15T03:51:41;68.72;;;46.28;;
38499;SDS011;24269;51.894;4.622;2022-10-15T03:54:06;68.15;;;48.17;;
38499;SDS011;24269;51.894;4.622;2022-10-15T03:56:32;72.00;;;46.65;;
38499;SDS011;24269;51.894;4.622;2022-10-15T03:58:58;70.05;;;46.63;;
38499;SDS011;24269;51.894;4.622;2022-10-15T04:01:23;70.53;;;47.40;;
38499;SDS011;24269;51.894;4.622;2022-10-15T04:03:53;69.45;;;47.03;;
38499;SDS011;24269;51.894;4.622;2022-10-15T04:06:18;69.93;;;47.22;;
38499;SDS011;24269;51.894;4.622;2022-10-15T04:08:45;73.00;;;47.78;;
38499;SDS011;24269;51.894;4.622;2022-10-15T04:11:11;74.07;;;47.63;;
38499;SDS011;24269;51.894;4.622;2022-10-15T04:13:36;70.32;;;47.38;;
38499;SDS011;24269;51.894;4.622;2022-10-15T04:16:04;71.03;;;46.83;;
38499;SDS011;24269;51.894;4.622;2022-10-15T04:18:31;72.80;;;46.33;;
38499;SDS011;24269;51.894;4.622;2022-10-15T04:21:00;62.38;;;45.28;;
38499;SDS011;24269;51.894;4.622;2022-10-15T04:23:26;66.35;;;45.58;;
38499;SDS011;24269;51.894;4.622;2022-10-15T04:25:52;66.50;;;44.80;;
38499;SDS011;24269;51.894;4.622;2022-10-15T04:28:18;68.70;;;45.72;;
38499;SDS011;24269;51.894;4.622;2022-10-15T04:30:44;70.05;;;46.85;;
38499;SDS011;24269;51.894;4.622;2022-10-15T04:33:09;66.50;;;45.10;;
38499;SDS011;24269;51.894;4.622;2022-10-15T04:35:35;65.90;;;46.08;;
38499;SDS011;24269;51.894;4.622;2022-10-15T04:38:00;67.65;;;45.85;;
38499;SDS011;24269;51.894;4.622;2022-10-15T04:40:26;65.95;;;44.60;;
38499;SDS011;24269;51.894;4.622;2022-10-15T04:42:52;62.60;;;44.85;;
38499;SDS011;24269;51.894;4.622;2022-10-15T04:45:18;65.50;;;45.90;;
38499;SDS011;24269;51.894;4.622;2022-10-15T04:47:43;68.15;;;45.83;;
38499;SDS011;24269;51.894;4.622;2022-10-15T04:50:09;67.53;;;45.05;;
38499;SDS011;24269;51.894;4.622;2022-10-15T04:52:35;64.95;;;45.42;;
38499;SDS011;24269;51.894;4.622;2022-10-15T04:55:01;67.13;;;46.33;;
38499;SDS011;24269;51.894;4.622;2022-10-15T04:57:28;70.13;;;46.53;;
38499;SDS011;24269;51.894;4.622;2022-10-15T04:59:54;67.32;;;44.97;;
38499;SDS011;24269;51.894;4.622;2022-10-15T05:02:20;66.75;;;44.50;;
38499;SDS011;24269;51.894;4.622;2022-10-15T05:04:46;59.72;;;42.92;;
38499;SDS011;24269;51.894;4.622;2022-10-15T05:07:11;68.10;;;44.20;;
38499;SDS011;24269;51.894;4.622;2022-10-15T05:09:37;60.78;;;43.25;;
38499;SDS011;24269;51.894;4.622;2022-10-15T05:12:02;68.20;;;44.65;;
38499;SDS011;24269;51.894;4.622;2022-10-15T05:14:28;64.78;;;43.65;;
38499;SDS011;24269;51.894;4.622;2022-10-15T05:16:53;66.22;;;42.35;;
38499;SDS011;24269;51.894;4.622;2022-10-15T05:19:19;67.35;;;44.08;;
38499;SDS011;24269;51.894;4.622;2022-10-15T05:21:45;70.72;;;44.97;;
38499;SDS011;24269;51.894;4.622;2022-10-15T05:24:10;66.80;;;42.53;;
38499;SDS011;24269;51.894;4.622;2022-10-15T05:26:36;68.93;;;43.10;;
38499;SDS011;24269;51.894;4.622;2022-10-15T05:29:02;65.72;;;42.10;;
38499;SDS011;24269;51.894;4.622;2022-10-15T05:31:28;62.13;;;40.70;;
38499;SDS011;24269;51.894;4.622;2022-10-15T05:33:55;60.22;;;40.28;;
38499;SDS011;24269;51.894;4.622;2022-10-15T05:36:23;61.58;;;40.58;;
38499;SDS011;24269;51.894;4.622;2022-10-15T05:38:55;62.63;;;38.17;;
38499;SDS011;24269;51.894;4.622;2022-10-15T05:41:23;60.38;;;36.95;;
38499;SDS011;24269;51.894;4.622;2022-10-15T05:43:50;60.90;;;37.67;;
38499;SDS011;24269;51.894;4.622;2022-10-15T05:46:17;59.42;;;38.25;;
38499;SDS011;24269;51.894;4.622;2022-10-15T05:48:50;63.33;;;38.95;;
38499;SDS011;24269;51.894;4.622;2022-10-15T05:51:20;65.47;;;39.35;;
38499;SDS011;24269;51.894;4.622;2022-10-15T05:53:46;69.35;;;39.17;;
38499;SDS011;24269;51.894;4.622;2022-10-15T05:56:12;68.65;;;40.00;;
38499;SDS011;24269;51.894;4.622;2022-10-15T05:58:39;73.20;;;40.30;;
38499;SDS011;24269;51.894;4.622;2022-10-15T06:01:05;81.97;;;43.25;;
38499;SDS011;24269;51.894;4.622;2022-10-15T06:03:33;82.80;;;43.20;;
38499;SDS011;24269;51.894;4.622;2022-10-15T06:05:58;85.28;;;42.65;;
38499;SDS011;24269;51.894;4.622;2022-10-15T06:08:24;84.63;;;44.38;;
38499;SDS011;24269;51.894;4.622;2022-10-15T06:10:51;87.90;;;45.50;;
38499;SDS011;24269;51.894;4.622;2022-10-15T06:13:17;79.57;;;43.47;;
38499;SDS011;24269;51.894;4.622;2022-10-15T06:15:43;80.53;;;44.53;;
38499;SDS011;24269;51.894;4.622;2022-10-15T06:18:10;81.50;;;44.08;;
38499;SDS011;24269;51.894;4.622;2022-10-15T06:20:39;81.88;;;44.38;;
38499;SDS011;24269;51.894;4.622;2022-10-15T06:23:05;83.43;;;45.50;;
38499;SDS011;24269;51.894;4.622;2022-10-15T06:25:32;85.75;;;46.22;;
38499;SDS011;24269;51.894;4.622;2022-10-15T06:28:01;76.22;;;42.42;;
38499;SDS011;24269;51.894;4.622;2022-10-15T06:30:28;69.60;;;40.87;;
38499;SDS011;24269;51.894;4.622;2022-10-15T06:32:54;71.28;;;38.55;;
38499;SDS011;24269;51.894;4.622;2022-10-15T06:35:21;71.18;;;38.88;;
38499;SDS011;24269;51.894;4.622;2022-10-15T06:37:47;71.07;;;41.42;;
38499;SDS011;24269;51.894;4.622;2022-10-15T06:40:13;66.85;;;40.08;;
38499;SDS011;24269;51.894;4.622;2022-10-15T06:42:40;67.35;;;39.95;;
38499;SDS011;24269;51.894;4.622;2022-10-15T06:45:06;70.63;;;40.75;;
38499;SDS011;24269;51.894;4.622;2022-10-15T06:47:33;76.07;;;45.03;;
38499;SDS011;24269;51.894;4.622;2022-10-15T06:49:59;80.18;;;46.20;;
38499;SDS011;24269;51.894;4.622;2022-10-15T06:52:25;94.75;;;50.17;;
38499;SDS011;24269;51.894;4.622;2022-10-15T06:54:50;91.43;;;49.05;;
38499;SDS011;24269;51.894;4.622;2022-10-15T06:57:16;102.95;;;49.47;;
38499;SDS011;24269;51.894;4.622;2022-10-15T06:59:42;103.68;;;50.95;;
38499;SDS011;24269;51.894;4.622;2022-10-15T07:02:08;113.05;;;50.47;;
38499;SDS011;24269;51.894;4.622;2022-10-15T07:04:34;120.28;;;51.22;;
38499;SDS011;24269;51.894;4.622;2022-10-15T07:07:00;125.63;;;52.40;;
38499;SDS011;24269;51.894;4.622;2022-10-15T07:09:25;120.82;;;52.70;;
38499;SDS011;24269;51.894;4.622;2022-10-15T07:11:51;121.50;;;52.40;;
38499;SDS011;24269;51.894;4.622;2022-10-15T07:14:17;118.43;;;52.00;;
38499;SDS011;24269;51.894;4.622;2022-10-15T07:16:43;114.55;;;51.92;;
38499;SDS011;24269;51.894;4.622;2022-10-15T07:19:08;110.05;;;50.78;;
38499;SDS011;24269;51.894;4.622;2022-10-15T07:21:34;107.00;;;50.30;;
38499;SDS011;24269;51.894;4.622;2022-10-15T07:24:00;92.70;;;46.45;;
38499;SDS011;24269;51.894;4.622;2022-10-15T07:26:25;87.78;;;43.40;;
38499;SDS011;24269;51.894;4.622;2022-10-15T07:28:55;75.00;;;41.33;;
38499;SDS011;24269;51.894;4.622;2022-10-15T07:31:21;74.68;;;38.53;;
38499;SDS011;24269;51.894;4.622;2022-10-15T07:33:47;64.75;;;36.22;;
38499;SDS011;24269;51.894;4.622;2022-10-15T07:36:13;66.00;;;37.53;;
38499;SDS011;24269;51.894;4.622;2022-10-15T07:38:39;63.92;;;35.88;;
38499;SDS011;24269;51.894;4.622;2022-10-15T07:41:06;61.60;;;35.90;;
38499;SDS011;24269;51.894;4.622;2022-10-15T07:43:33;57.75;;;34.47;;
38499;SDS011;24269;51.894;4.622;2022-10-15T07:45:59;49.97;;;30.95;;
38499;SDS011;24269;51.894;4.622;2022-10-15T07:48:25;50.05;;;31.38;;
38499;SDS011;24269;51.894;4.622;2022-10-15T07:51:09;52.88;;;30.80;;
38499;SDS011;24269;51.894;4.622;2022-10-15T07:53:35;49.33;;;30.33;;
38499;SDS011;24269;51.894;4.622;2022-10-15T07:56:02;49.38;;;31.92;;
38499;SDS011;24269;51.894;4.622;2022-10-15T07:58:31;48.72;;;30.90;;
38499;SDS011;24269;51.894;4.622;2022-10-15T08:01:01;47.92;;;30.23;;
38499;SDS011;24269;51.894;4.622;2022-10-15T08:03:28;43.92;;;28.67;;
38499;SDS011;24269;51.894;4.622;2022-10-15T08:05:54;40.47;;;27.48;;
38499;SDS011;24269;51.894;4.622;2022-10-15T08:08:21;42.08;;;27.23;;
38499;SDS011;24269;51.894;4.622;2022-10-15T08:10:47;38.47;;;26.63;;
38499;SDS011;24269;51.894;4.622;2022-10-15T08:13:13;38.75;;;25.52;;
38499;SDS011;24269;51.894;4.622;2022-10-15T08:15:39;36.42;;;24.80;;
38499;SDS011;24269;51.894;4.622;2022-10-15T08:18:05;35.17;;;23.88;;
38499;SDS011;24269;51.894;4.622;2022-10-15T08:20:31;36.35;;;23.70;;
38499;SDS011;24269;51.894;4.622;2022-10-15T08:22:57;31.27;;;21.58;;
38499;SDS011;24269;51.894;4.622;2022-10-15T08:25:23;32.22;;;22.33;;
38499;SDS011;24269;51.894;4.622;2022-10-15T08:27:48;29.17;;;20.27;;
38499;SDS011;24269;51.894;4.622;2022-10-15T08:30:16;27.60;;;19.67;;
38499;SDS011;24269;51.894;4.622;2022-10-15T08:32:42;26.20;;;19.13;;
38499;SDS011;24269;51.894;4.622;2022-10-15T08:35:07;28.15;;;18.70;;
38499;SDS011;24269;51.894;4.622;2022-10-15T08:37:33;26.38;;;19.02;;
38499;SDS011;24269;51.894;4.622;2022-10-15T08:39:58;24.17;;;17.55;;
38499;SDS011;24269;51.894;4.622;2022-10-15T08:42:29;25.80;;;17.80;;
38499;SDS011;24269;51.894;4.622;2022-10-15T08:45:10;25.67;;;17.60;;
38499;SDS011;24269;51.894;4.622;2022-10-15T08:53:08;23.05;;;16.85;;
38499;SDS011;24269;51.894;4.622;2022-10-15T08:55:38;24.30;;;17.33;;
38499;SDS011;24269;51.894;4.622;2022-10-15T08:58:15;23.23;;;17.75;;
38499;SDS011;24269;51.894;4.622;2022-10-15T09:03:36;25.95;;;17.98;;
38499;SDS011;24269;51.894;4.622;2022-10-15T09:06:13;26.85;;;19.02;;
38499;SDS011;24269;51.894;4.622;2022-10-15T09:14:17;30.27;;;19.25;;
38499;SDS011;24269;51.894;4.622;2022-10-15T09:16:47;26.98;;;18.25;;
38499;SDS011;24269;51.894;4.622;2022-10-15T09:19:18;29.63;;;18.67;;
38499;SDS011;24269;51.894;4.622;2022-10-15T09:21:49;26.17;;;17.73;;
38499;SDS011;24269;51.894;4.622;2022-10-15T09:24:24;28.52;;;18.20;;
38499;SDS011;24269;51.894;4.622;2022-10-15T09:32:57;27.70;;;16.65;;
38499;SDS011;24269;51.894;4.622;2022-10-15T09:35:44;28.77;;;17.92;;
38499;SDS011;24269;51.894;4.622;2022-10-15T09:38:24;28.90;;;18.00;;
38499;SDS011;24269;51.894;4.622;2022-10-15T09:43:30;33.17;;;18.80;;
38499;SDS011;24269;51.894;4.622;2022-10-15T09:46:00;25.45;;;16.45;;
38499;SDS011;24269;51.894;4.622;2022-10-15T09:48:27;28.63;;;16.80;;
38499;SDS011;24269;51.894;4.622;2022-10-15T09:50:58;26.80;;;16.98;;
38499;SDS011;24269;51.894;4.622;2022-10-15T09:53:44;26.30;;;15.73;;
38499;SDS011;24269;51.894;4.622;2022-10-15T09:56:23;27.13;;;16.23;;
38499;SDS011;24269;51.894;4.622;2022-10-15T09:58:56;27.40;;;16.52;;
38499;SDS011;24269;51.894;4.622;2022-10-15T10:07:35;27.27;;;15.55;;
38499;SDS011;24269;51.894;4.622;2022-10-15T10:10:22;26.95;;;14.38;;
38499;SDS011;24269;51.894;4.622;2022-10-15T10:12:53;21.42;;;13.10;;
38499;SDS011;24269;51.894;4.622;2022-10-15T10:17:55;21.58;;;12.57;;
38499;SDS011;24269;51.894;4.622;2022-10-15T10:20:22;17.70;;;11.27;;
38499;SDS011;24269;51.894;4.622;2022-10-15T10:30:20;18.98;;;11.93;;
38499;SDS011;24269;51.894;4.622;2022-10-15T10:32:46;18.25;;;11.30;;
38499;SDS011;24269;51.894;4.622;2022-10-15T10:35:19;20.15;;;12.25;;
38499;SDS011;24269;51.894;4.622;2022-10-15T10:37:46;18.23;;;11.40;;
38499;SDS011;24269;51.894;4.622;2022-10-15T10:40:26;19.95;;;11.98;;
38499;SDS011;24269;51.894;4.622;2022-10-15T10:48:31;19.42;;;10.95;;
38499;SDS011;24269;51.894;4.622;2022-10-15T10:53:32;20.83;;;13.05;;
38499;SDS011;24269;51.894;4.622;2022-10-15T10:56:01;23.02;;;14.07;;
38499;SDS011;24269;51.894;4.622;2022-10-15T10:58:31;19.70;;;13.75;;
38499;SDS011;24269;51.894;4.622;2022-10-15T11:00:58;19.33;;;14.15;;
38499;SDS011;24269;51.894;4.622;2022-10-15T11:20:18;20.52;;;15.45;;
38499;SDS011;24269;51.894;4.622;2022-10-15T11:22:29;23.08;;;16.35;;
38499;SDS011;24269;51.894;4.622;2022-10-15T11:25:18;21.23;;;16.40;;
38499;SDS011;24269;51.894;4.622;2022-10-15T11:36:09;22.20;;;17.75;;
38499;SDS011;24269;51.894;4.622;2022-10-15T11:39:14;21.35;;;17.27;;
38499;SDS011;24269;51.894;4.622;2022-10-15T11:41:53;22.50;;;16.63;;
38499;SDS011;24269;51.894;4.622;2022-10-15T11:50:27;21.23;;;15.73;;
38499;SDS011;24269;51.894;4.622;2022-10-15T11:58:22;18.75;;;13.82;;
38499;SDS011;24269;51.894;4.622;2022-10-15T12:00:55;17.77;;;12.48;;
38499;SDS011;24269;51.894;4.622;2022-10-15T12:05:55;14.88;;;11.35;;
38499;SDS011;24269;51.894;4.622;2022-10-15T12:08:25;16.52;;;11.60;;
38499;SDS011;24269;51.894;4.622;2022-10-15T12:11:12;16.85;;;11.98;;
38499;SDS011;24269;51.894;4.622;2022-10-15T12:14:00;14.75;;;10.98;;
38499;SDS011;24269;51.894;4.622;2022-10-15T12:16:40;16.38;;;11.00;;
38499;SDS011;24269;51.894;4.622;2022-10-15T12:19:21;12.45;;;9.50;;
38499;SDS011;24269;51.894;4.622;2022-10-15T12:30:25;9.95;;;7.40;;
38499;SDS011;24269;51.894;4.622;2022-10-15T12:37:40;9.13;;;7.03;;
38499;SDS011;24269;51.894;4.622;2022-10-15T12:43:02;8.55;;;6.43;;
38499;SDS011;24269;51.894;4.622;2022-10-15T12:45:37;7.38;;;6.15;;
38499;SDS011;24269;51.894;4.622;2022-10-15T12:50:30;8.65;;;5.93;;
38499;SDS011;24269;51.894;4.622;2022-10-15T12:53:05;7.68;;;5.57;;
38499;SDS011;24269;51.894;4.622;2022-10-15T12:58:47;8.32;;;5.75;;
38499;SDS011;24269;51.894;4.622;2022-10-15T13:03:51;7.70;;;5.38;;
38499;SDS011;24269;51.894;4.622;2022-10-15T13:08:45;16.27;;;11.32;;
38499;SDS011;24269;51.894;4.622;2022-10-15T13:11:19;14.30;;;11.70;;
38499;SDS011;24269;51.894;4.622;2022-10-15T13:13:54;10.52;;;7.57;;
38499;SDS011;24269;51.894;4.622;2022-10-15T13:16:26;6.63;;;5.07;;
38499;SDS011;24269;51.894;4.622;2022-10-15T13:18:53;6.68;;;4.43;;
38499;SDS011;24269;51.894;4.622;2022-10-15T13:21:21;6.82;;;3.65;;
38499;SDS011;24269;51.894;4.622;2022-10-15T13:23:48;6.15;;;3.33;;
38499;SDS011;24269;51.894;4.622;2022-10-15T13:26:16;5.75;;;2.80;;
38499;SDS011;24269;51.894;4.622;2022-10-15T13:28:48;5.45;;;2.33;;
38499;SDS011;24269;51.894;4.622;2022-10-15T13:33:47;4.53;;;2.22;;
38499;SDS011;24269;51.894;4.622;2022-10-15T13:36:17;3.63;;;1.77;;
38499;SDS011;24269;51.894;4.622;2022-10-15T13:38:50;4.07;;;1.60;;
38499;SDS011;24269;51.894;4.622;2022-10-15T13:41:28;4.20;;;1.63;;
38499;SDS011;24269;51.894;4.622;2022-10-15T13:44:16;2.65;;;1.00;;
38499;SDS011;24269;51.894;4.622;2022-10-15T13:46:47;3.90;;;0.93;;
38499;SDS011;24269;51.894;4.622;2022-10-15T13:49:13;3.97;;;0.95;;
38499;SDS011;24269;51.894;4.622;2022-10-15T13:51:39;3.55;;;0.80;;
38499;SDS011;24269;51.894;4.622;2022-10-15T13:54:09;2.92;;;0.60;;
38499;SDS011;24269;51.894;4.622;2022-10-15T13:56:45;3.72;;;0.60;;
38499;SDS011;24269;51.894;4.622;2022-10-15T13:59:37;4.82;;;0.80;;
38499;SDS011;24269;51.894;4.622;2022-10-15T14:02:02;4.55;;;0.60;;
38499;SDS011;24269;51.894;4.622;2022-10-15T14:04:29;4.07;;;0.50;;
38499;SDS011;24269;51.894;4.622;2022-10-15T14:09:31;1.03;;;0.40;;
38499;SDS011;24269;51.894;4.622;2022-10-15T14:11:58;5.03;;;0.50;;
38499;SDS011;24269;51.894;4.622;2022-10-15T14:14:38;1.75;;;0.52;;
38499;SDS011;24269;51.894;4.622;2022-10-15T14:17:09;4.40;;;0.50;;
38499;SDS011;24269;51.894;4.622;2022-10-15T14:19:43;1.70;;;0.38;;
38499;SDS011;24269;51.894;4.622;2022-10-15T14:22:15;3.97;;;0.57;;
38499;SDS011;24269;51.894;4.622;2022-10-15T14:24:43;5.50;;;0.50;;
38499;SDS011;24269;51.894;4.622;2022-10-15T14:29:49;6.35;;;0.88;;
38499;SDS011;24269;51.894;4.622;2022-10-15T14:32:24;5.75;;;1.08;;
38499;SDS011;24269;51.894;4.622;2022-10-15T14:35:28;3.42;;;0.90;;
38499;SDS011;24269;51.894;4.622;2022-10-15T14:40:32;6.47;;;0.70;;
38499;SDS011;24269;51.894;4.622;2022-10-15T14:43:14;5.32;;;1.70;;
38499;SDS011;24269;51.894;4.622;2022-10-15T14:45:42;6.22;;;1.20;;
38499;SDS011;24269;51.894;4.622;2022-10-15T14:48:24;6.18;;;1.13;;
38499;SDS011;24269;51.894;4.622;2022-10-15T14:51:05;7.35;;;2.50;;
38499;SDS011;24269;51.894;4.622;2022-10-15T14:53:34;5.32;;;1.20;;
38499;SDS011;24269;51.894;4.622;2022-10-15T14:58:56;8.95;;;2.67;;
38499;SDS011;24269;51.894;4.622;2022-10-15T15:01:22;7.20;;;2.42;;
38499;SDS011;24269;51.894;4.622;2022-10-15T15:03:52;10.63;;;4.40;;
38499;SDS011;24269;51.894;4.622;2022-10-15T15:06:19;11.30;;;5.55;;
38499;SDS011;24269;51.894;4.622;2022-10-15T15:08:45;5.50;;;1.80;;
38499;SDS011;24269;51.894;4.622;2022-10-15T15:11:15;5.45;;;0.98;;
38499;SDS011;24269;51.894;4.622;2022-10-15T15:13:44;6.65;;;1.25;;
38499;SDS011;24269;51.894;4.622;2022-10-15T15:16:11;5.53;;;0.90;;
38499;SDS011;24269;51.894;4.622;2022-10-15T15:18:38;5.43;;;0.90;;
38499;SDS011;24269;51.894;4.622;2022-10-15T15:21:06;5.68;;;0.80;;
38499;SDS011;24269;51.894;4.622;2022-10-15T15:23:36;5.78;;;1.05;;
38499;SDS011;24269;51.894;4.622;2022-10-15T15:26:02;7.57;;;3.15;;
38499;SDS011;24269;51.894;4.622;2022-10-15T15:28:27;17.25;;;8.10;;
38499;SDS011;24269;51.894;4.622;2022-10-15T15:30:57;10.20;;;3.50;;
38499;SDS011;24269;51.894;4.622;2022-10-15T15:33:24;8.18;;;2.38;;
38499;SDS011;24269;51.894;4.622;2022-10-15T15:35:53;8.45;;;1.60;;
38499;SDS011;24269;51.894;4.622;2022-10-15T15:38:31;6.05;;;1.20;;
38499;SDS011;24269;51.894;4.622;2022-10-15T15:41:11;6.38;;;1.17;;
38499;SDS011;24269;51.894;4.622;2022-10-15T15:43:38;5.63;;;1.10;;
38499;SDS011;24269;51.894;4.622;2022-10-15T15:46:04;5.75;;;1.33;;
38499;SDS011;24269;51.894;4.622;2022-10-15T15:48:30;6.95;;;1.40;;
38499;SDS011;24269;51.894;4.622;2022-10-15T15:50:57;6.97;;;1.50;;
38499;SDS011;24269;51.894;4.622;2022-10-15T15:53:28;5.32;;;1.20;;
38499;SDS011;24269;51.894;4.622;2022-10-15T15:55:54;4.10;;;1.10;;
38499;SDS011;24269;51.894;4.622;2022-10-15T15:58:19;7.75;;;1.50;;
38499;SDS011;24269;51.894;4.622;2022-10-15T16:00:45;5.90;;;1.40;;
38499;SDS011;24269;51.894;4.622;2022-10-15T16:03:10;5.78;;;1.40;;
38499;SDS011;24269;51.894;4.622;2022-10-15T16:05:37;6.43;;;1.38;;
38499;SDS011;24269;51.894;4.622;2022-10-15T16:08:04;6.75;;;1.60;;
38499;SDS011;24269;51.894;4.622;2022-10-15T16:10:30;7.65;;;1.83;;
38499;SDS011;24269;51.894;4.622;2022-10-15T16:12:56;7.78;;;1.63;;
38499;SDS011;24269;51.894;4.622;2022-10-15T16:15:22;8.43;;;1.90;;
38499;SDS011;24269;51.894;4.622;2022-10-15T16:17:47;6.28;;;1.58;;
38499;SDS011;24269;51.894;4.622;2022-10-15T16:20:13;8.18;;;1.75;;
38499;SDS011;24269;51.894;4.622;2022-10-15T16:22:39;6.43;;;1.48;;
38499;SDS011;24269;51.894;4.622;2022-10-15T16:25:05;5.85;;;1.75;;
38499;SDS011;24269;51.894;4.622;2022-10-15T16:27:31;7.47;;;1.48;;
38499;SDS011;24269;51.894;4.622;2022-10-15T16:29:58;8.52;;;1.90;;
38499;SDS011;24269;51.894;4.622;2022-10-15T16:32:25;10.18;;;2.03;;
38499;SDS011;24269;51.894;4.622;2022-10-15T16:34:50;6.72;;;1.90;;
38499;SDS011;24269;51.894;4.622;2022-10-15T16:37:16;7.82;;;1.65;;
38499;SDS011;24269;51.894;4.622;2022-10-15T16:39:42;9.80;;;1.50;;
38499;SDS011;24269;51.894;4.622;2022-10-15T16:42:07;7.00;;;1.33;;
38499;SDS011;24269;51.894;4.622;2022-10-15T16:44:33;10.05;;;1.80;;
38499;SDS011;24269;51.894;4.622;2022-10-15T16:46:59;12.27;;;1.60;;
38499;SDS011;24269;51.894;4.622;2022-10-15T16:49:25;7.53;;;1.50;;
38499;SDS011;24269;51.894;4.622;2022-10-15T16:51:50;14.10;;;2.20;;
38499;SDS011;24269;51.894;4.622;2022-10-15T16:54:16;10.32;;;2.20;;
38499;SDS011;24269;51.894;4.622;2022-10-15T16:56:42;10.68;;;2.45;;
38499;SDS011;24269;51.894;4.622;2022-10-15T16:59:07;11.55;;;2.22;;
38499;SDS011;24269;51.894;4.622;2022-10-15T17:01:33;12.18;;;2.75;;
38499;SDS011;24269;51.894;4.622;2022-10-15T17:03:59;9.43;;;2.08;;
38499;SDS011;24269;51.894;4.622;2022-10-15T17:06:26;11.48;;;2.30;;
38499;SDS011;24269;51.894;4.622;2022-10-15T17:08:54;11.40;;;2.67;;
38499;SDS011;24269;51.894;4.622;2022-10-15T17:11:25;10.75;;;2.42;;